ADDS METAR Data INFO
IDs: Format: Raw Decoded Include TAF

Data at: 1455 UTC 11 Dec 2017

KPIM 111435Z AUTO 27006KT 10SM CLR 07/01 A3022 RMK AO2 T00720011 PWINO
KPIM 111415Z AUTO 26004KT 10SM CLR 06/01 A3023 RMK AO2 T00600005 PWINO
KPIM 111355Z AUTO 26003KT 10SM CLR 05/01 A3023 RMK AO2 T00450007 PWINO
KPIM 111335Z AUTO 24003KT 10SM CLR 02/00 A3023 RMK AO2 T00210003 PWINO
KPIM 111315Z AUTO 00000KT 10SM CLR 00/00 A3022 RMK AO2 T00021003 PWINO
KPIM 111255Z AUTO 00000KT 10SM CLR M01/M01 A3022 RMK AO2 T10061012 PWINO
KPIM 111235Z AUTO 00000KT 10SM CLR M01/M01 A3021 RMK AO2 T10061010 PWINO
KPIM 111215Z AUTO 00000KT 10SM CLR 00/M01 A3021 RMK AO2 T10051009 PWINO
KPIM 111155Z AUTO 00000KT 10SM CLR 00/M01 A3021 RMK AO2 T10011010 10000 21014 PWINO
KPIM 111135Z AUTO 00000KT 10SM CLR 00/M01 A3021 RMK AO2 T10051011 PWINO
KPIM 111115Z AUTO 00000KT 10SM CLR M01/M02 A3021 RMK AO2 T10061017 PWINO
KPIM 111055Z AUTO 00000KT 10SM CLR 00/M01 A3022 RMK AO2 T00001014 PWINO
KPIM 111035Z AUTO 00000KT 10SM CLR M01/M01 A3022 RMK AO2 T10101013 PWINO
KPIM 111015Z AUTO 00000KT 10SM CLR M01/M01 A3022 RMK AO2 T10111015 PWINO
KPIM 110955Z AUTO 00000KT 10SM CLR M01/M02 A3022 RMK AO2 T10131017 PWINO
KPIM 110935Z AUTO 00000KT 10SM CLR M01/M01 A3023 RMK AO2 T10081013 PWINO
KPIM 110915Z AUTO 00000KT 10SM CLR M01/M02 A3022 RMK AO2 T10101017 PWINO
KPIM 110855Z AUTO 00000KT 10SM CLR M01/M02 A3023 RMK AO2 T10081017 PWINO
KPIM 110835Z AUTO 25003KT 10SM CLR M01/M02 A3023 RMK AO2 T10121017 PWINO
KPIM 110815Z AUTO 25003KT 10SM CLR M01/M02 A3024 RMK AO2 T10121017 PWINO
KPIM 110755Z AUTO 00000KT 10SM CLR M01/M02 A3025 RMK AO2 T10111016 PWINO
KPIM 110735Z AUTO 00000KT 10SM CLR M01/M02 A3025 RMK AO2 T10081016 PWINO
KPIM 110715Z AUTO 26003KT 10SM CLR M01/M02 A3025 RMK AO2 T10091017 PWINO
KPIM 110655Z AUTO 00000KT 10SM CLR M01/M02 A3026 RMK AO2 T10061018 PWINO
KPIM 110635Z AUTO 24003KT 10SM CLR 00/M01 A3026 RMK AO2 T10031014 PWINO
KPIM 110615Z AUTO 28003KT 10SM CLR M01/M02 A3025 RMK AO2 T10061017 PWINO
KPIM 110555Z AUTO 00000KT 10SM CLR 00/M02 A3026 RMK AO2 T00001017 10024 21002 PWINO
KPIM 110535Z AUTO 27005KT 10SM CLR 01/M02 A3026 RMK AO2 T00061017 PWINO
KPIM 110515Z AUTO 28004KT 10SM CLR 01/M01 A3027 RMK AO2 T00051015 PWINO
KPIM 110455Z AUTO 26004KT 10SM CLR 01/M01 A3027 RMK AO2 T00081015 PWINO
KPIM 110435Z AUTO 00000KT 10SM CLR 00/M01 A3027 RMK AO2 T10021013 PWINO
KPIM 110415Z AUTO 24004KT 10SM CLR 01/M02 A3027 RMK AO2 T00051017 PWINO
KPIM 110355Z AUTO 26004KT 10SM CLR 01/M02 A3027 RMK AO2 T00111016 400921025 PWINO
KPIM 110335Z AUTO 26004KT 10SM CLR 00/M02 A3027 RMK AO2 T00001018 PWINO
KPIM 110315Z AUTO 25004KT 10SM CLR 00/M02 A3027 RMK AO2 T00031017 PWINO
KPIM 110255Z AUTO 25004KT 10SM CLR 02/M02 A3027 RMK AO2 T00151018 PWINO
KPIM 110235Z AUTO 25004KT 10SM CLR 02/M02 A3026 RMK AO2 T00201018 PWINO
KPIM 110215Z AUTO 25004KT 10SM CLR 02/M02 A3026 RMK AO2 T00191018 PWINO
KPIM 110155Z AUTO 25004KT 10SM CLR 01/M02 A3026 RMK AO2 T00081018 PWINO
KPIM 110135Z AUTO 26003KT 10SM CLR 00/M02 A3026 RMK AO2 T00031017 PWINO
KPIM 110115Z AUTO 00000KT 10SM CLR 00/M02 A3026 RMK AO2 T00041017 PWINO
KPIM 110055Z AUTO 25003KT 10SM CLR 00/M01 A3026 RMK AO2 T00011011 PWINO
KPIM 110035Z AUTO 00000KT 10SM CLR 01/M01 A3026 RMK AO2 T00111012 PWINO
KPIM 110015Z AUTO 00000KT 10SM CLR 02/M01 A3026 RMK AO2 T00191009 PWINO
KPIM 102355Z AUTO 00000KT 10SM CLR 03/M01 A3025 RMK AO2 T00261011 10092 20026 PWINO
KPIM 102335Z AUTO 00000KT 10SM CLR 04/M01 A3024 RMK AO2 T00361014 PWINO
KPIM 102315Z AUTO 00000KT 10SM CLR 04/M02 A3024 RMK AO2 T00391016 PWINO
KPIM 102255Z AUTO 00000KT 10SM CLR 05/M02 A3024 RMK AO2 T00511023 PWINO
KPIM 102235Z AUTO 26003KT 10SM CLR 07/M03 A3024 RMK AO2 T00661032 PWINO
KPIM 102215Z AUTO 27006KT 10SM CLR 08/M03 A3025 RMK AO2 T00801031 PWINO
KPIM 102155Z AUTO 27006KT 10SM CLR 09/M03 A3024 RMK AO2 T00861033 PWINO
KPIM 102135Z AUTO 31005KT 10SM CLR 09/M04 A3025 RMK AO2 T00901038 PWINO
KPIM 102115Z AUTO 29007KT 10SM CLR 09/M05 A3024 RMK AO2 T00901048 PWINO
KPIM 102055Z AUTO 32005KT 10SM CLR 09/M03 A3024 RMK AO2 T00901034 PWINO
KPIM 102035Z AUTO 30003KT 10SM CLR 09/M03 A3025 RMK AO2 T00901035 PWINO
KPIM 102015Z AUTO 30007KT 10SM CLR 09/M03 A3025 RMK AO2 T00891033 PWINO
KPIM 101955Z AUTO 32004KT 10SM CLR 09/M04 A3025 RMK AO2 T00871041 PWINO
KPIM 101935Z AUTO 31008KT 10SM CLR 09/M04 A3025 RMK AO2 T00861040 PWINO
KPIM 101915Z AUTO 30007KT 270V330 10SM CLR 08/M04 A3026 RMK AO2 T00811036 PWINO
KPIM 101855Z AUTO 29008KT 10SM CLR 08/M03 A3026 RMK AO2 T00811030 PWINO
KPIM 101835Z AUTO 34005KT 10SM CLR 08/M04 A3027 RMK AO2 T00781037 PWINO
KPIM 101815Z AUTO 29010KT 10SM CLR 07/M04 A3028 RMK AO2 T00731040 PWINO
KPIM 101755Z AUTO 34007KT 10SM CLR 07/M04 A3029 RMK AO2 T00681042 10070 21025 PWINO
KPIM 101735Z AUTO 35009KT 300V020 10SM CLR 07/M04 A3030 RMK AO2 T00701038 PWINO
KPIM 101715Z AUTO 30007KT 280V340 10SM CLR 06/M04 A3031 RMK AO2 T00621037 PWINO
KPIM 101655Z AUTO 30004KT 10SM CLR 06/M03 A3031 RMK AO2 T00551032 PWINO
KPIM 101635Z AUTO 33006KT 10SM CLR 05/M03 A3031 RMK AO2 T00481033 PWINO
KPIM 101615Z AUTO 36006KT 330V030 10SM CLR 04/M03 A3032 RMK AO2 T00431033 PWINO
KPIM 101555Z AUTO 33006KT 10SM CLR 04/M03 A3033 RMK AO2 T00381032 PWINO
KPIM 101535Z AUTO 33005KT 10SM CLR 03/M03 A3032 RMK AO2 T00341031 PWINO
KPIM 101515Z AUTO 29003KT 10SM CLR 03/M03 A3031 RMK AO2 T00251026 PWINO
KPIM 101455Z AUTO 33004KT 10SM CLR 02/M03 A3031 RMK AO2 T00171027 PWINO
KPIM 101435Z AUTO 34003KT 10SM CLR 01/M03 A3030 RMK AO2 T00081028 PWINO
KPIM 101415Z AUTO 35004KT 10SM CLR 00/M02 A3030 RMK AO2 T00031024 PWINO
KPIM 101355Z AUTO 33004KT 10SM CLR 00/M02 A3029 RMK AO2 T10021025 PWINO
KPIM 101335Z AUTO 34004KT 10SM CLR M01/M02 A3029 RMK AO2 T10091025 PWINO
KPIM 101315Z AUTO 33003KT 10SM CLR M01/M02 A3029 RMK AO2 T10151025 PWINO
KPIM 101255Z AUTO 34003KT 10SM CLR M02/M03 A3028 RMK AO2 T10201027 PWINO
KPIM 101235Z AUTO 32003KT 10SM CLR M02/M03 A3028 RMK AO2 T10231029 PWINO
KPIM 101215Z AUTO 00000KT 10SM CLR M02/M03 A3028 RMK AO2 T10221028 PWINO
KPIM 101155Z AUTO 00000KT 10SM CLR M02/M03 A3028 RMK AO2 T10221029 10001 21024 PWINO
KPIM 101135Z AUTO 28003KT 10SM CLR M02/M03 A3028 RMK AO2 T10211032 PWINO
KPIM 101115Z AUTO 31003KT 10SM CLR M02/M03 A3028 RMK AO2 T10171029 PWINO
KPIM 101055Z AUTO 31004KT 10SM CLR M01/M02 A3027 RMK AO2 T10131025 PWINO
KPIM 101035Z AUTO 32004KT 10SM CLR M01/M02 A3026 RMK AO2 T10131025 PWINO
KPIM 101015Z AUTO 30004KT 10SM CLR M01/M02 A3025 RMK AO2 T10141021 PWINO
KPIM 100955Z AUTO 00000KT 10SM CLR M02/M02 A3025 RMK AO2 T10161023 PWINO
KPIM 100935Z AUTO 00000KT 10SM CLR M01/M02 A3025 RMK AO2 T10151024 PWINO
KPIM 100915Z AUTO 00000KT 10SM TS CLR M02/M02 A3025 RMK AO2 T10191024
KPIM 100855Z AUTO 00000KT 10SM CLR M01/M02 A3024 RMK AO2 T10141022 PWINO
KPIM 100835Z AUTO 00000KT 10SM CLR M01/M02 A3023 RMK AO2 T10101017 PWINO
KPIM 100815Z AUTO 00000KT 10SM CLR M01/M02 A3022 RMK AO2 T10101016 PWINO
KPIM 100755Z AUTO 00000KT 10SM CLR M01/M02 A3021 RMK AO2 T10101019 PWINO
KPIM 100735Z AUTO 00000KT 10SM CLR 00/M01 A3021 RMK AO2 T10051009 PWINO
KPIM 100715Z AUTO 00000KT 10SM CLR 00/M01 A3020 RMK AO2 T10031006 PWINO
KPIM 100655Z AUTO 00000KT 10SM CLR 00/M01 A3019 RMK AO2 T10031006 PWINO
KPIM 100635Z AUTO 29003KT 10SM CLR 00/00 A3019 RMK AO2 T10021005 PWINO
KPIM 100615Z AUTO 00000KT 10SM CLR 00/00 A3018 RMK AO2 T00001005 PWINO
KPIM 100555Z AUTO 31003KT 10SM CLR 00/00 A3018 RMK AO2 T00011005 10027 20000 PWINO
KPIM 100535Z AUTO 30004KT 10SM CLR 00/M01 A3018 RMK AO2 T00001006 PWINO
KPIM 100515Z AUTO 00000KT 10SM CLR 00/M01 A3018 RMK AO2 T00011009 PWINO
KPIM 100455Z AUTO 29004KT 10SM CLR 00/M01 A3017 RMK AO2 T00021009 PWINO
KPIM 100435Z AUTO 29004KT 10SM CLR 01/M01 A3016 RMK AO2 T00061006 PWINO
KPIM 100415Z AUTO 29006KT 10SM CLR 01/M01 A3015 RMK AO2 T00091007 PWINO
KPIM 100355Z AUTO 29005KT 10SM CLR 01/M01 A3015 RMK AO2 T00111007 400620008 PWINO
KPIM 100335Z AUTO 29006KT 10SM CLR 01/M01 A3015 RMK AO2 T00101009 PWINO
KPIM 100315Z AUTO 28007KT 10SM CLR 01/M01 A3014 RMK AO2 T00111008 PWINO